createdAt,value
2018-06-17T00:00:50.568Z,8.20
2018-06-17T00:01:50.591Z,8.80
2018-06-17T00:02:50.569Z,6.10
2018-06-17T00:03:50.592Z,5.40
2018-06-17T00:04:50.604Z,6.30
2018-06-17T00:05:50.718Z,6.20
2018-06-17T00:06:50.641Z,5.00
2018-06-17T00:07:50.651Z,4.60
2018-06-17T00:08:50.656Z,5.00
2018-06-17T00:09:50.666Z,4.40
2018-06-17T00:10:50.668Z,4.90
2018-06-17T00:11:50.776Z,4.40
2018-06-17T00:12:50.682Z,5.20
2018-06-17T00:13:50.696Z,4.20
2018-06-17T00:14:50.716Z,4.30
2018-06-17T00:15:50.733Z,4.30
2018-06-17T00:16:50.849Z,5.30
2018-06-17T00:17:50.751Z,5.20
2018-06-17T00:18:50.767Z,7.10
2018-06-17T00:19:50.787Z,5.20
2018-06-17T00:20:50.780Z,5.00
2018-06-17T00:21:50.794Z,4.40
2018-06-17T00:22:50.912Z,4.70
2018-06-17T00:23:50.802Z,5.50
2018-06-17T00:24:50.832Z,5.40
2018-06-17T00:25:50.846Z,4.80
2018-06-17T00:26:50.854Z,5.30
2018-06-17T00:27:50.965Z,6.00
2018-06-17T00:28:50.889Z,4.50
2018-06-17T00:29:50.893Z,4.20
2018-06-17T00:30:50.901Z,4.50
2018-06-17T00:31:50.901Z,4.30
2018-06-17T00:32:51.018Z,4.20
2018-06-17T00:33:50.915Z,3.50
2018-06-17T00:34:50.941Z,4.20
2018-06-17T00:35:50.952Z,4.30
2018-06-17T00:36:50.948Z,3.70
2018-06-17T00:37:51.005Z,4.40
2018-06-17T00:38:50.965Z,4.20
2018-06-17T00:39:50.999Z,3.70
2018-06-17T00:40:51.013Z,4.60
2018-06-17T00:41:51.010Z,5.50
2018-06-17T00:42:51.134Z,4.90
2018-06-17T00:43:51.041Z,5.80
2018-06-17T00:44:51.043Z,5.90
2018-06-17T00:45:51.042Z,6.80
2018-06-17T00:46:51.074Z,8.50
2018-06-17T00:47:51.169Z,7.40
2018-06-17T00:48:51.082Z,7.10
2018-06-17T00:49:51.100Z,6.40
2018-06-17T00:50:51.112Z,6.10
2018-06-17T00:51:51.122Z,6.40
2018-06-17T00:52:51.246Z,7.50
2018-06-17T00:53:51.141Z,8.40
2018-06-17T00:54:51.162Z,8.10
2018-06-17T00:55:51.158Z,8.40
2018-06-17T00:56:51.174Z,8.70
2018-06-17T00:57:51.286Z,9.30
2018-06-17T00:58:51.209Z,9.30
2018-06-17T00:59:51.202Z,9.50
2018-06-17T01:00:51.236Z,9.40
2018-06-17T01:01:51.234Z,7.40
2018-06-17T01:02:51.356Z,8.60
2018-06-17T01:03:51.248Z,8.40
2018-06-17T01:04:51.257Z,8.20
2018-06-17T01:05:51.285Z,7.40
2018-06-17T01:06:51.276Z,7.30
2018-06-17T01:07:51.399Z,8.10
2018-06-17T01:08:51.311Z,6.70
2018-06-17T01:09:51.325Z,7.40
2018-06-17T01:10:51.333Z,7.30
2018-06-17T01:11:51.355Z,7.00
2018-06-17T01:12:51.396Z,5.80
2018-06-17T01:13:51.376Z,6.40
2018-06-17T01:14:51.387Z,6.90
2018-06-17T01:15:51.405Z,5.90
2018-06-17T01:16:51.410Z,6.60
2018-06-17T01:17:51.494Z,6.90
2018-06-17T01:18:51.484Z,6.80
2018-06-17T01:19:51.427Z,8.10
2018-06-17T01:20:51.455Z,7.80
2018-06-17T01:21:51.451Z,7.40
2018-06-17T01:22:51.467Z,7.00
2018-06-17T01:23:51.590Z,6.20
2018-06-17T01:24:51.485Z,5.70
2018-06-17T01:25:51.488Z,5.30
2018-06-17T01:26:51.510Z,6.80
2018-06-17T01:27:51.525Z,5.80
2018-06-17T01:28:51.629Z,5.60
2018-06-17T01:29:51.541Z,6.50
2018-06-17T01:30:51.573Z,6.70
2018-06-17T01:31:51.579Z,6.50
2018-06-17T01:32:51.570Z,9.30
2018-06-17T01:33:51.675Z,9.10
2018-06-17T01:34:51.597Z,9.10
2018-06-17T01:35:51.603Z,9.90
2018-06-17T01:36:51.657Z,9.30
2018-06-17T01:37:51.635Z,8.30
2018-06-17T01:38:51.733Z,8.60
2018-06-17T01:39:51.666Z,6.60
2018-06-17T01:40:51.655Z,7.40
2018-06-17T01:41:51.692Z,8.60
2018-06-17T01:42:51.697Z,8.30
2018-06-17T01:43:51.797Z,10.00
2018-06-17T01:44:51.700Z,10.10
2018-06-17T01:45:51.725Z,8.50
2018-06-17T01:46:51.735Z,8.70
2018-06-17T01:47:51.757Z,7.30
2018-06-17T01:48:51.751Z,7.40
2018-06-17T01:49:51.862Z,8.60
2018-06-17T01:50:51.780Z,9.70
2018-06-17T01:51:51.905Z,9.50
2018-06-17T01:52:51.788Z,9.70
2018-06-17T01:53:51.928Z,8.10
2018-06-17T01:54:51.918Z,7.80
2018-06-17T01:55:51.955Z,7.40
2018-06-17T01:56:51.854Z,7.90
2018-06-17T01:57:51.845Z,10.00
2018-06-17T01:58:51.869Z,9.70
2018-06-17T01:59:51.981Z,10.10
2018-06-17T02:00:51.871Z,9.70
2018-06-17T02:01:51.889Z,10.00
2018-06-17T02:02:51.910Z,9.30
2018-06-17T02:03:51.925Z,8.90
2018-06-17T02:04:51.927Z,8.30
2018-06-17T02:05:52.038Z,8.60
2018-06-17T02:06:51.935Z,7.90
2018-06-17T02:07:51.961Z,7.00
2018-06-17T02:08:51.984Z,6.50
2018-06-17T02:09:51.988Z,5.50
2018-06-17T02:10:52.102Z,5.90
2018-06-17T02:11:52.006Z,6.60
2018-06-17T02:12:52.013Z,6.60
2018-06-17T02:13:52.031Z,6.40
2018-06-17T02:14:52.043Z,5.70
2018-06-17T02:15:52.158Z,5.90
2018-06-17T02:16:52.054Z,6.30
2018-06-17T02:17:52.060Z,6.20
2018-06-17T02:18:52.073Z,6.10
2018-06-17T02:19:52.082Z,6.60
2018-06-17T02:20:52.206Z,6.60
2018-06-17T02:21:52.121Z,7.30
2018-06-17T02:22:52.131Z,7.40
2018-06-17T02:23:52.122Z,7.50
2018-06-17T02:24:52.145Z,8.10
2018-06-17T02:25:52.250Z,8.20
2018-06-17T02:26:52.169Z,9.00
2018-06-17T02:27:52.176Z,7.80
2018-06-17T02:28:52.200Z,7.80
2018-06-17T02:29:52.198Z,8.10
2018-06-17T02:30:52.299Z,8.00
2018-06-17T02:31:52.214Z,8.20
2018-06-17T02:32:52.231Z,8.50
2018-06-17T02:33:52.254Z,8.70
2018-06-17T02:34:52.248Z,9.40
2018-06-17T02:35:52.366Z,9.30
2018-06-17T02:36:52.263Z,9.50
2018-06-17T02:37:52.288Z,10.50
2018-06-17T02:38:52.306Z,12.60
2018-06-17T02:39:52.331Z,11.90
2018-06-17T02:40:52.416Z,9.40
2018-06-17T02:41:52.317Z,8.40
2018-06-17T02:42:52.327Z,9.30
2018-06-17T02:43:52.351Z,9.60
2018-06-17T02:44:52.357Z,8.90
2018-06-17T02:45:52.381Z,9.10
2018-06-17T02:46:52.556Z,8.40
2018-06-17T02:47:52.412Z,8.50
2018-06-17T02:48:52.413Z,8.70
2018-06-17T02:49:52.415Z,8.70
2018-06-17T02:50:52.429Z,9.30
2018-06-17T02:51:52.479Z,9.50
2018-06-17T02:52:52.467Z,9.90
2018-06-17T02:53:52.468Z,24.40
2018-06-17T02:54:52.475Z,26.30
2018-06-17T02:55:52.492Z,26.90
2018-06-17T02:56:52.582Z,27.30
2018-06-17T02:57:52.498Z,29.00
2018-06-17T02:58:52.523Z,34.40
2018-06-17T02:59:52.521Z,37.80
2018-06-17T03:00:52.541Z,29.50
2018-06-17T03:01:52.548Z,25.50
2018-06-17T03:02:52.676Z,19.70
2018-06-17T03:03:52.629Z,29.00
2018-06-17T03:04:52.589Z,19.30
2018-06-17T03:05:52.595Z,13.30
2018-06-17T03:06:52.611Z,11.10
2018-06-17T03:07:52.724Z,11.00
2018-06-17T03:08:52.638Z,10.10
2018-06-17T03:09:52.626Z,10.00
2018-06-17T03:10:52.639Z,10.00
2018-06-17T03:11:52.683Z,9.00
2018-06-17T03:12:52.773Z,8.70
2018-06-17T03:13:52.669Z,7.70
2018-06-17T03:14:52.706Z,8.20
2018-06-17T03:15:52.712Z,8.50
2018-06-17T03:16:52.717Z,8.70
2018-06-17T03:17:52.825Z,8.10
2018-06-17T03:18:52.726Z,8.30
2018-06-17T03:19:52.752Z,8.60
2018-06-17T03:20:52.765Z,8.40
2018-06-17T03:21:52.756Z,9.10
2018-06-17T03:22:52.890Z,8.30
2018-06-17T03:23:52.810Z,8.50
2018-06-17T03:24:52.800Z,8.70
2018-06-17T03:25:52.816Z,8.80
2018-06-17T03:26:52.837Z,8.40
2018-06-17T03:27:52.934Z,8.70
2018-06-17T03:28:52.856Z,9.10
2018-06-17T03:29:52.853Z,9.20
2018-06-17T03:30:52.860Z,8.80
2018-06-17T03:31:52.881Z,9.10
2018-06-17T03:32:52.990Z,9.90
2018-06-17T03:33:52.896Z,9.80
2018-06-17T03:34:52.900Z,9.70
2018-06-17T03:35:52.916Z,10.00
2018-06-17T03:36:52.933Z,10.20
2018-06-17T03:37:53.044Z,9.50
2018-06-17T03:38:52.969Z,10.00
2018-06-17T03:39:52.982Z,9.30
2018-06-17T03:40:52.991Z,10.00
2018-06-17T03:41:52.979Z,10.00
2018-06-17T03:42:53.109Z,10.00
2018-06-17T03:43:53.000Z,11.70
2018-06-17T03:44:53.033Z,10.50
2018-06-17T03:45:53.034Z,9.90
2018-06-17T03:46:53.049Z,11.30
2018-06-17T03:47:53.155Z,11.60
2018-06-17T03:48:53.053Z,12.30
2018-06-17T03:49:53.077Z,11.00
2018-06-17T03:50:53.099Z,12.00
2018-06-17T03:51:53.092Z,11.30
2018-06-17T03:52:53.162Z,11.90
2018-06-17T03:53:53.118Z,11.00
2018-06-17T03:54:53.133Z,11.50
2018-06-17T03:55:53.362Z,12.00
2018-06-17T03:56:53.154Z,12.40
2018-06-17T03:57:53.174Z,11.70
2018-06-17T03:58:53.188Z,12.90
2018-06-17T03:59:53.177Z,12.10
2018-06-17T04:00:53.298Z,11.70
2018-06-17T04:01:53.199Z,12.30
2018-06-17T04:02:53.223Z,12.40
2018-06-17T04:03:53.235Z,12.60
2018-06-17T04:04:53.241Z,11.70
2018-06-17T04:05:53.356Z,12.50
2018-06-17T04:06:53.263Z,12.90
2018-06-17T04:07:53.263Z,12.40
2018-06-17T04:08:53.281Z,12.20
2018-06-17T04:09:53.315Z,11.60
2018-06-17T04:10:53.415Z,11.70
2018-06-17T04:11:53.316Z,11.80
2018-06-17T04:12:53.328Z,12.70
2018-06-17T04:13:53.330Z,13.00
2018-06-17T04:14:53.353Z,12.10
2018-06-17T04:15:53.480Z,12.30
2018-06-17T04:16:53.370Z,11.60
2018-06-17T04:17:53.388Z,11.20
2018-06-17T04:18:53.378Z,11.50
2018-06-17T04:19:53.388Z,12.10
2018-06-17T04:20:53.526Z,11.20
2018-06-17T04:21:53.424Z,11.10
2018-06-17T04:22:53.443Z,10.90
2018-06-17T04:23:53.446Z,10.60
2018-06-17T04:24:53.453Z,10.20
2018-06-17T04:25:53.568Z,10.60
2018-06-17T04:26:53.482Z,10.60
2018-06-17T04:27:53.481Z,10.00
2018-06-17T04:28:53.488Z,8.20
2018-06-17T04:29:53.518Z,8.10
2018-06-17T04:30:53.627Z,8.20
2018-06-17T04:31:53.535Z,9.50
2018-06-17T04:32:53.537Z,9.20
2018-06-17T04:33:53.560Z,9.20
2018-06-17T04:34:53.572Z,9.50
2018-06-17T04:35:53.689Z,9.60
2018-06-17T04:36:53.585Z,8.80
2018-06-17T04:37:53.584Z,8.80
2018-06-17T04:38:53.608Z,7.90
2018-06-17T04:39:53.624Z,7.90
2018-06-17T04:40:53.746Z,8.10
2018-06-17T04:41:53.644Z,8.20
2018-06-17T04:42:53.664Z,7.40
2018-06-17T04:43:53.657Z,7.30
2018-06-17T04:44:53.666Z,6.50
2018-06-17T04:45:53.797Z,6.10
2018-06-17T04:46:53.685Z,6.00
2018-06-17T04:47:53.703Z,5.80
2018-06-17T04:48:53.727Z,5.30
2018-06-17T04:49:53.730Z,4.50
2018-06-17T04:50:53.846Z,4.30
2018-06-17T04:51:53.744Z,4.20
2018-06-17T04:52:53.761Z,3.20
2018-06-17T04:53:53.768Z,2.90
2018-06-17T04:54:53.769Z,3.00
2018-06-17T04:55:53.936Z,3.10
2018-06-17T04:56:53.795Z,3.20
2018-06-17T04:57:53.814Z,3.30
2018-06-17T04:58:53.839Z,2.70
2018-06-17T04:59:53.872Z,2.70
2018-06-17T05:00:53.948Z,2.90
2018-06-17T05:01:53.851Z,3.20
2018-06-17T05:02:53.872Z,3.20
2018-06-17T05:03:53.870Z,3.30
2018-06-17T05:04:53.885Z,3.40
2018-06-17T05:05:54.011Z,3.20
2018-06-17T05:06:53.912Z,3.90
2018-06-17T05:07:53.924Z,3.50
2018-06-17T05:08:53.925Z,3.60
2018-06-17T05:09:53.948Z,3.50
2018-06-17T05:10:54.066Z,4.30
2018-06-17T05:11:53.967Z,3.90
2018-06-17T05:12:53.973Z,4.50
2018-06-17T05:13:53.980Z,4.30
2018-06-17T05:14:54.015Z,4.60
2018-06-17T05:15:54.114Z,3.90
2018-06-17T05:16:54.018Z,4.60
2018-06-17T05:17:54.039Z,4.50
2018-06-17T05:18:54.048Z,4.80
2018-06-17T05:19:54.054Z,4.50
2018-06-17T05:20:54.160Z,4.80
2018-06-17T05:21:54.087Z,4.60
2018-06-17T05:22:54.085Z,5.10
2018-06-17T05:23:54.107Z,4.70
2018-06-17T05:24:54.126Z,4.60
2018-06-17T05:25:54.205Z,4.90
2018-06-17T05:26:54.134Z,4.30
2018-06-17T05:27:54.148Z,4.10
2018-06-17T05:28:54.151Z,4.50
2018-06-17T05:29:54.150Z,4.50
2018-06-17T05:30:54.215Z,4.10
2018-06-17T05:31:54.186Z,4.50
2018-06-17T05:32:54.195Z,4.60
2018-06-17T05:33:54.280Z,4.30
2018-06-17T05:34:54.372Z,4.60
2018-06-17T05:35:54.219Z,3.80
2018-06-17T05:36:54.246Z,3.90
2018-06-17T05:37:54.234Z,3.90
2018-06-17T05:38:54.271Z,3.80
2018-06-17T05:39:54.394Z,3.90
2018-06-17T05:40:54.291Z,4.00
2018-06-17T05:41:54.283Z,3.40
2018-06-17T05:42:54.300Z,3.80
2018-06-17T05:43:54.308Z,3.80
2018-06-17T05:44:54.527Z,3.60
2018-06-17T05:45:54.333Z,3.20
2018-06-17T05:46:54.352Z,3.40
2018-06-17T05:47:54.369Z,3.20
2018-06-17T05:48:54.360Z,4.00
2018-06-17T05:49:54.534Z,3.40
2018-06-17T05:50:54.375Z,3.50
2018-06-17T05:51:54.413Z,3.80
2018-06-17T05:52:54.405Z,3.60
2018-06-17T05:53:54.409Z,4.10
2018-06-17T05:54:54.490Z,4.20
2018-06-17T05:55:54.452Z,3.80
2018-06-17T05:56:54.549Z,4.00
2018-06-17T05:57:54.470Z,4.10
2018-06-17T05:58:54.470Z,3.80
2018-06-17T05:59:54.502Z,3.80
2018-06-17T06:00:54.519Z,3.60
2018-06-17T06:01:54.681Z,3.80
2018-06-17T06:02:54.641Z,4.00
2018-06-17T06:03:54.548Z,3.90
2018-06-17T06:04:54.561Z,3.70
2018-06-17T06:05:54.545Z,3.30
2018-06-17T06:06:54.615Z,3.70
2018-06-17T06:07:54.565Z,3.60
2018-06-17T06:08:54.635Z,3.60
2018-06-17T06:09:54.611Z,3.90
2018-06-17T06:10:54.595Z,3.60
2018-06-17T06:11:54.621Z,4.10
2018-06-17T06:12:54.644Z,3.80
2018-06-17T06:13:54.698Z,3.40
2018-06-17T06:14:54.659Z,3.70
2018-06-17T06:15:54.652Z,3.90
2018-06-17T06:16:54.688Z,3.70
2018-06-17T06:17:54.671Z,3.70
2018-06-17T06:18:54.791Z,3.90
2018-06-17T06:19:54.716Z,3.80
2018-06-17T06:20:54.729Z,3.70
2018-06-17T06:21:54.731Z,4.00
2018-06-17T06:22:54.740Z,3.50
2018-06-17T06:23:54.743Z,3.80
2018-06-17T06:24:54.856Z,3.90
2018-06-17T06:25:54.782Z,3.90
2018-06-17T06:26:54.771Z,4.00
2018-06-17T06:27:54.788Z,3.80
2018-06-17T06:28:54.804Z,3.70
2018-06-17T06:29:54.826Z,4.30
2018-06-17T06:30:54.941Z,4.10
2018-06-17T06:31:54.832Z,4.20
2018-06-17T06:32:54.848Z,4.90
2018-06-17T06:33:54.865Z,3.70
2018-06-17T06:34:54.883Z,3.80
2018-06-17T06:35:54.922Z,3.40
2018-06-17T06:36:54.896Z,4.10
2018-06-17T06:37:54.895Z,3.90
2018-06-17T06:38:54.907Z,4.00
2018-06-17T06:39:54.937Z,4.00
2018-06-17T06:40:54.985Z,4.50
2018-06-17T06:41:54.965Z,3.90
2018-06-17T06:42:54.997Z,4.70
2018-06-17T06:43:55.067Z,4.30
2018-06-17T06:44:55.005Z,3.50
2018-06-17T06:45:54.994Z,2.80
2018-06-17T06:46:55.020Z,2.30
2018-06-17T06:47:55.026Z,2.20
2018-06-17T06:48:55.032Z,2.10
2018-06-17T06:49:55.130Z,2.00
2018-06-17T06:50:55.139Z,2.10
2018-06-17T06:51:55.072Z,2.30
2018-06-17T06:52:55.067Z,2.10
2018-06-17T06:53:55.079Z,2.40
2018-06-17T06:54:55.209Z,2.10
2018-06-17T06:55:55.101Z,2.50
2018-06-17T06:56:55.123Z,2.10
2018-06-17T06:57:55.131Z,2.20
2018-06-17T06:58:55.140Z,2.40
2018-06-17T06:59:55.254Z,2.40
2018-06-17T07:00:55.152Z,2.30
2018-06-17T07:01:55.172Z,2.60
2018-06-17T07:02:55.193Z,2.70
2018-06-17T07:03:55.195Z,2.30
2018-06-17T07:04:55.367Z,3.30
2018-06-17T07:05:55.219Z,3.90
2018-06-17T07:06:55.229Z,4.20
2018-06-17T07:07:55.250Z,4.30
2018-06-17T07:08:55.270Z,4.50
2018-06-17T07:09:55.468Z,5.30
2018-06-17T07:10:55.289Z,5.90
2018-06-17T07:11:55.286Z,6.30
2018-06-17T07:12:55.290Z,6.30
2018-06-17T07:13:55.301Z,7.00
2018-06-17T07:14:55.425Z,6.10
2018-06-17T07:15:55.340Z,6.80
2018-06-17T07:16:55.346Z,7.20
2018-06-17T07:17:55.364Z,7.60
2018-06-17T07:18:55.351Z,7.70
2018-06-17T07:19:55.367Z,9.10
2018-06-17T07:20:55.495Z,8.10
2018-06-17T07:21:55.396Z,7.60
2018-06-17T07:22:55.408Z,7.10
2018-06-17T07:23:55.407Z,6.30
2018-06-17T07:24:55.434Z,5.60
2018-06-17T07:25:55.555Z,4.60
2018-06-17T07:26:55.441Z,4.50
2018-06-17T07:27:55.471Z,4.60
2018-06-17T07:28:55.477Z,3.90
2018-06-17T07:29:55.480Z,3.80
2018-06-17T07:30:55.557Z,3.80
2018-06-17T07:31:55.500Z,3.20
2018-06-17T07:32:55.678Z,3.10
2018-06-17T07:33:55.541Z,3.20
2018-06-17T07:34:55.529Z,3.10
2018-06-17T07:35:55.567Z,3.00
2018-06-17T07:36:55.576Z,3.00
2018-06-17T07:37:55.568Z,2.70
2018-06-17T07:38:55.811Z,3.00
2018-06-17T07:39:55.601Z,2.90
2018-06-17T07:40:55.631Z,3.20
2018-06-17T07:41:55.621Z,3.50
2018-06-17T07:42:55.644Z,3.20
2018-06-17T07:43:55.753Z,3.70
2018-06-17T07:44:55.650Z,4.50
2018-06-17T07:45:55.674Z,5.10
2018-06-17T07:46:55.680Z,5.40
2018-06-17T07:47:55.703Z,5.70
2018-06-17T07:48:55.802Z,6.40
2018-06-17T07:49:55.709Z,6.60
2018-06-17T07:50:55.730Z,6.70
2018-06-17T07:51:55.745Z,6.90
2018-06-17T07:52:55.751Z,6.20
2018-06-17T07:53:55.855Z,6.70
2018-06-17T07:54:55.766Z,7.00
2018-06-17T07:55:55.777Z,6.50
2018-06-17T07:56:55.805Z,6.60
2018-06-17T07:57:55.805Z,6.70
2018-06-17T07:58:55.958Z,6.40
2018-06-17T07:59:55.841Z,6.90
2018-06-17T08:00:55.821Z,6.30
2018-06-17T08:01:55.836Z,6.00
2018-06-17T08:02:55.865Z,5.60
2018-06-17T08:03:55.910Z,5.70
2018-06-17T08:04:55.897Z,5.30
2018-06-17T08:05:55.890Z,5.70
2018-06-17T08:06:55.913Z,5.00
2018-06-17T08:07:56.006Z,4.80
2018-06-17T08:08:55.927Z,5.00
2018-06-17T08:09:55.927Z,5.60
2018-06-17T08:10:55.997Z,5.90
2018-06-17T08:11:55.949Z,6.00
2018-06-17T08:12:55.973Z,5.30
2018-06-17T08:13:56.067Z,6.10
2018-06-17T08:14:56.000Z,6.30
2018-06-17T08:15:55.991Z,6.40
2018-06-17T08:16:56.021Z,6.40
2018-06-17T08:17:56.021Z,6.80
2018-06-17T08:18:56.146Z,6.60
2018-06-17T08:19:56.059Z,7.10
2018-06-17T08:20:56.049Z,7.30
2018-06-17T08:21:56.065Z,8.00
2018-06-17T08:22:56.081Z,8.30
2018-06-17T08:23:56.188Z,8.10
2018-06-17T08:24:56.112Z,8.90
2018-06-17T08:25:56.107Z,9.70
2018-06-17T08:26:56.122Z,10.60
2018-06-17T08:27:56.145Z,10.00
2018-06-17T08:28:56.262Z,10.70
2018-06-17T08:29:56.144Z,10.60
2018-06-17T08:30:56.175Z,10.90
2018-06-17T08:31:56.167Z,11.20
2018-06-17T08:32:56.183Z,11.50
2018-06-17T08:33:56.400Z,11.50
2018-06-17T08:34:56.206Z,11.60
2018-06-17T08:35:56.210Z,11.30
2018-06-17T08:36:56.243Z,9.00
2018-06-17T08:37:56.240Z,8.50
2018-06-17T08:38:56.336Z,8.70
2018-06-17T08:39:56.382Z,6.30
2018-06-17T08:40:56.282Z,4.50
2018-06-17T08:41:56.293Z,3.80
2018-06-17T08:42:56.306Z,4.00
2018-06-17T08:43:56.365Z,3.70
2018-06-17T08:44:56.414Z,4.50
2018-06-17T08:45:56.339Z,3.90
2018-06-17T08:46:56.358Z,3.90
2018-06-17T08:47:56.355Z,3.20
2018-06-17T08:48:56.364Z,3.80
2018-06-17T08:49:56.461Z,4.10
2018-06-17T08:50:56.368Z,4.50
2018-06-17T08:51:56.400Z,5.60
2018-06-17T08:52:56.400Z,8.00
2018-06-17T08:53:56.420Z,9.50
2018-06-17T08:54:56.573Z,10.70
2018-06-17T08:55:56.428Z,10.80
2018-06-17T08:56:56.430Z,9.30
2018-06-17T08:57:56.459Z,9.60
2018-06-17T08:58:56.479Z,8.00
2018-06-17T08:59:56.588Z,6.90
2018-06-17T09:00:56.479Z,6.10
2018-06-17T09:01:56.505Z,7.10
2018-06-17T09:02:56.494Z,7.00
2018-06-17T09:03:56.520Z,6.70
2018-06-17T09:04:56.638Z,6.10
2018-06-17T09:05:56.604Z,7.30
2018-06-17T09:06:56.554Z,9.60
2018-06-17T09:07:56.551Z,10.50
2018-06-17T09:08:56.575Z,10.10
2018-06-17T09:09:56.677Z,8.70
2018-06-17T09:10:56.583Z,7.80
2018-06-17T09:11:56.593Z,6.80
2018-06-17T09:12:56.616Z,6.20
2018-06-17T09:13:56.640Z,6.20
2018-06-17T09:14:56.637Z,5.70
2018-06-17T09:15:56.761Z,5.50
2018-06-17T09:16:56.658Z,5.10
2018-06-17T09:17:56.679Z,5.10
2018-06-17T09:18:56.681Z,4.40
2018-06-17T09:19:56.683Z,4.60
2018-06-17T09:20:56.886Z,4.50
2018-06-17T09:21:56.729Z,5.00
2018-06-17T09:22:56.724Z,5.40
2018-06-17T09:23:56.736Z,5.30
2018-06-17T09:24:56.747Z,6.20
2018-06-17T09:25:56.758Z,6.80
2018-06-17T09:26:56.888Z,6.40
2018-06-17T09:27:56.788Z,8.50
2018-06-17T09:28:56.802Z,8.80
2018-06-17T09:29:56.804Z,7.90
2018-06-17T09:30:56.818Z,8.70
2018-06-17T09:31:56.876Z,8.40
2018-06-17T09:32:56.943Z,9.30
2018-06-17T09:33:56.832Z,10.00
2018-06-17T09:34:56.858Z,9.00
2018-06-17T09:35:56.854Z,10.30
2018-06-17T09:36:56.872Z,10.30
2018-06-17T09:37:57.013Z,10.40
2018-06-17T09:38:56.892Z,10.10
2018-06-17T09:39:56.908Z,9.00
2018-06-17T09:40:56.929Z,9.70
2018-06-17T09:41:57.030Z,9.70
2018-06-17T09:42:56.931Z,10.20
2018-06-17T09:43:56.967Z,9.50
2018-06-17T09:44:56.952Z,9.50
2018-06-17T09:45:56.967Z,10.10
2018-06-17T09:46:57.078Z,10.20
2018-06-17T09:47:56.992Z,10.90
2018-06-17T09:48:57.024Z,11.30
2018-06-17T09:49:57.026Z,10.80
2018-06-17T09:50:57.021Z,11.20
2018-06-17T09:51:57.145Z,10.40
2018-06-17T09:52:57.057Z,10.90
2018-06-17T09:53:57.060Z,10.90
2018-06-17T09:54:57.074Z,10.70
2018-06-17T09:55:57.091Z,11.20
2018-06-17T09:56:57.200Z,11.10
2018-06-17T09:57:57.112Z,10.50
2018-06-17T09:58:57.116Z,10.80
2018-06-17T09:59:57.145Z,11.20
2018-06-17T10:00:57.129Z,12.00
2018-06-17T10:01:57.259Z,11.90
2018-06-17T10:02:57.173Z,11.30
2018-06-17T10:03:57.184Z,11.60
2018-06-17T10:04:57.166Z,12.50
2018-06-17T10:05:57.198Z,13.00
2018-06-17T10:06:57.312Z,13.10
2018-06-17T10:07:57.220Z,13.60
2018-06-17T10:08:57.236Z,13.50
2018-06-17T10:09:57.235Z,14.50
2018-06-17T10:10:57.251Z,15.50
2018-06-17T10:11:57.372Z,17.50
2018-06-17T10:12:57.268Z,15.80
2018-06-17T10:13:57.264Z,14.40
2018-06-17T10:14:57.291Z,14.30
2018-06-17T10:15:57.299Z,13.30
2018-06-17T10:16:57.408Z,13.40
2018-06-17T10:17:57.325Z,15.90
2018-06-17T10:18:57.330Z,22.30
2018-06-17T10:19:57.348Z,20.70
2018-06-17T10:20:57.370Z,22.80
2018-06-17T10:21:57.466Z,22.20
2018-06-17T10:22:57.390Z,20.90
2018-06-17T10:23:57.374Z,18.90
2018-06-17T10:24:57.402Z,14.60
2018-06-17T10:25:57.409Z,14.10
2018-06-17T10:26:57.511Z,13.90
2018-06-17T10:27:57.429Z,12.30
2018-06-17T10:28:57.454Z,11.80
2018-06-17T10:29:57.452Z,12.40
2018-06-17T10:30:57.469Z,11.90
2018-06-17T10:31:57.573Z,11.70
2018-06-17T10:32:57.482Z,11.50
2018-06-17T10:33:57.506Z,12.60
2018-06-17T10:34:57.497Z,13.90
2018-06-17T10:35:57.505Z,14.30
2018-06-17T10:36:57.532Z,14.20
2018-06-17T10:37:57.638Z,14.20
2018-06-17T10:38:57.566Z,14.70
2018-06-17T10:39:57.563Z,16.70
2018-06-17T10:40:57.560Z,15.80
2018-06-17T10:41:57.575Z,16.40
2018-06-17T10:42:57.656Z,15.90
2018-06-17T10:43:57.590Z,15.90
2018-06-17T10:44:57.626Z,15.00
2018-06-17T10:45:57.821Z,12.50
2018-06-17T10:46:57.638Z,12.80
2018-06-17T10:47:57.649Z,12.50
2018-06-17T10:48:57.737Z,12.30
2018-06-17T10:49:57.665Z,12.20
2018-06-17T10:50:57.829Z,12.20
2018-06-17T10:51:57.691Z,12.10
2018-06-17T10:52:57.736Z,12.30
2018-06-17T10:53:57.725Z,12.60
2018-06-17T10:54:57.726Z,11.90
2018-06-17T10:55:58.034Z,12.60
2018-06-17T10:56:57.745Z,13.30
2018-06-17T10:57:57.764Z,14.80
2018-06-17T10:58:57.797Z,15.20
2018-06-17T10:59:57.794Z,13.60
2018-06-17T11:00:57.919Z,14.00
2018-06-17T11:01:57.810Z,13.00
2018-06-17T11:02:57.826Z,13.20
2018-06-17T11:03:57.829Z,13.70
2018-06-17T11:04:57.852Z,12.20
2018-06-17T11:05:57.958Z,11.60
2018-06-17T11:06:57.871Z,11.80
2018-06-17T11:07:57.874Z,11.30
2018-06-17T11:08:57.901Z,11.90
2018-06-17T11:09:57.911Z,12.60
2018-06-17T11:10:57.982Z,12.30
2018-06-17T11:11:57.920Z,14.00
2018-06-17T11:12:57.953Z,14.00
2018-06-17T11:13:58.065Z,13.80
2018-06-17T11:14:57.973Z,12.30
2018-06-17T11:15:57.972Z,13.40
2018-06-17T11:16:57.988Z,13.40
2018-06-17T11:17:58.010Z,12.20
2018-06-17T11:18:58.170Z,10.80
2018-06-17T11:19:58.024Z,9.50
2018-06-17T11:20:58.052Z,8.70
2018-06-17T11:21:58.063Z,8.80
2018-06-17T11:22:58.049Z,7.80
2018-06-17T11:23:58.238Z,6.70
2018-06-17T11:24:58.085Z,6.70
2018-06-17T11:25:58.111Z,6.40
2018-06-17T11:26:58.104Z,6.90
2018-06-17T11:27:58.117Z,7.00
2018-06-17T11:28:58.278Z,7.00
2018-06-17T11:29:58.146Z,7.50
2018-06-17T11:30:58.168Z,6.70
2018-06-17T11:31:58.182Z,6.30
2018-06-17T11:32:58.173Z,6.80
2018-06-17T11:33:58.305Z,6.50
2018-06-17T11:34:58.214Z,6.30
2018-06-17T11:35:58.236Z,5.90
2018-06-17T11:36:58.256Z,5.90
2018-06-17T11:37:58.260Z,5.70
2018-06-17T11:38:58.371Z,5.70
2018-06-17T11:39:58.279Z,5.50
2018-06-17T11:40:58.286Z,5.80
2018-06-17T11:41:58.308Z,5.60
2018-06-17T11:42:58.472Z,5.20
2018-06-17T11:43:58.320Z,5.70
2018-06-17T11:44:58.353Z,5.80
2018-06-17T11:45:58.358Z,6.10
2018-06-17T11:46:58.356Z,5.40
2018-06-17T11:47:58.489Z,4.40
2018-06-17T11:48:58.400Z,4.60
2018-06-17T11:49:58.409Z,4.20
2018-06-17T11:50:58.428Z,4.10
2018-06-17T11:51:58.438Z,3.80
2018-06-17T11:52:58.443Z,3.70
2018-06-17T11:53:58.546Z,4.30
2018-06-17T11:54:58.472Z,3.90
2018-06-17T11:55:58.480Z,3.80
2018-06-17T11:56:58.519Z,3.90
2018-06-17T11:57:58.527Z,4.10
2018-06-17T11:58:58.614Z,6.90
2018-06-17T11:59:58.539Z,4.90
2018-06-17T12:00:58.555Z,5.40
2018-06-17T12:01:58.614Z,6.70
2018-06-17T12:02:58.577Z,5.40
2018-06-17T12:03:58.603Z,5.30
2018-06-17T12:04:58.746Z,4.50
2018-06-17T12:05:58.612Z,3.60
2018-06-17T12:06:58.640Z,4.00
2018-06-17T12:07:58.655Z,4.10
2018-06-17T12:08:58.662Z,3.70
2018-06-17T12:09:58.684Z,5.90
2018-06-17T12:10:58.896Z,5.30
2018-06-17T12:11:58.702Z,3.80
2018-06-17T12:12:58.729Z,3.90
2018-06-17T12:13:58.738Z,2.80
2018-06-17T12:14:58.736Z,2.40
2018-06-17T12:15:58.947Z,1.90
2018-06-17T12:16:58.788Z,2.20
2018-06-17T12:17:58.804Z,2.20
2018-06-17T12:18:58.785Z,2.30
2018-06-17T12:19:58.798Z,2.00
2018-06-17T12:20:58.935Z,2.60
2018-06-17T12:21:58.830Z,2.40
2018-06-17T12:22:58.854Z,2.50
2018-06-17T12:23:58.849Z,2.90
2018-06-17T12:24:58.881Z,3.20
2018-06-17T12:25:59.027Z,3.00
2018-06-17T12:26:58.901Z,2.70
2018-06-17T12:27:58.903Z,2.60
2018-06-17T12:28:58.914Z,3.00
2018-06-17T12:29:58.950Z,2.50
2018-06-17T12:30:59.055Z,2.30
2018-06-17T12:31:58.985Z,2.60
2018-06-17T12:32:58.991Z,2.60
2018-06-17T12:33:59.005Z,2.30
2018-06-17T12:34:59.013Z,2.50
2018-06-17T12:35:59.124Z,2.30
2018-06-17T12:36:59.037Z,2.50
2018-06-17T12:37:59.039Z,2.60
2018-06-17T12:38:59.059Z,3.00
2018-06-17T12:39:59.073Z,2.80
2018-06-17T12:40:59.135Z,2.60
2018-06-17T12:41:59.111Z,2.10
2018-06-17T12:42:59.220Z,2.30
2018-06-17T12:43:59.160Z,2.30
2018-06-17T12:44:59.172Z,2.50
2018-06-17T12:45:59.165Z,2.40
2018-06-17T12:46:59.168Z,2.40
2018-06-17T12:47:59.302Z,2.00
2018-06-17T12:48:59.213Z,2.30
2018-06-17T12:49:59.237Z,2.30
2018-06-17T12:50:59.233Z,2.10
2018-06-17T12:51:59.252Z,2.20
2018-06-17T12:52:59.423Z,2.00
2018-06-17T12:53:59.290Z,2.30
2018-06-17T12:54:59.289Z,1.90
2018-06-17T12:55:59.328Z,2.00
2018-06-17T12:56:59.345Z,2.10
2018-06-17T12:57:59.443Z,2.10
2018-06-17T12:58:59.369Z,1.80
2018-06-17T12:59:59.387Z,2.20
2018-06-17T13:00:59.404Z,2.20
2018-06-17T13:01:59.419Z,2.10
2018-06-17T13:02:59.509Z,2.20
2018-06-17T13:03:59.443Z,1.80
2018-06-17T13:04:59.449Z,2.00
2018-06-17T13:05:59.467Z,2.10
2018-06-17T13:06:59.478Z,2.00
2018-06-17T13:07:59.506Z,1.90
2018-06-17T13:08:59.569Z,1.90
2018-06-17T13:09:59.534Z,2.40
2018-06-17T13:10:59.553Z,2.20
2018-06-17T13:11:59.706Z,2.60
2018-06-17T13:12:59.572Z,4.00